Time;durP1;ratioP1;P1;durP2;ratioP2;P2;SDS_P1;SDS_P2;PMS_P1;PMS_P2;Temp;Humidity;BMP_temperature;BMP_pressure;BME280_temperature;BME280_humidity;BME280_pressure;Samples;Min_cycle;Max_cycle;Signal;HPM_P1;HPM_P2
2022/01/04 00:00:14;;;;;;;7.37;2.62;;;;;;;7.79;83.68;100358.13;1871754;76;21128;-59
2022/01/04 00:02:42;;;;;;;5.30;2.27;;;;;;;7.80;83.76;100358.97;1871766;77;21038;-59
2022/01/04 00:05:11;;;;;;;9.30;4.53;;;;;;;7.81;83.73;100347.12;1871667;75;21484;-60
2022/01/04 00:07:40;;;;;;;6.42;3.65;;;;;;;7.84;83.84;100350.09;1871797;76;21470;-60
2022/01/04 00:10:10;;;;;;;14.05;4.90;;;;;;;7.86;83.91;100346.98;1871802;77;21543;-61
2022/01/04 00:15:25;;;;;;;11.28;5.30;;;;;;;7.89;83.96;100341.62;1871812;77;21527;-60
2022/01/04 00:17:54;;;;;;;12.95;5.78;;;;;;;7.89;84.03;100341.19;1871707;77;21207;-60
2022/01/04 00:20:23;;;;;;;12.18;5.78;;;;;;;7.90;84.12;100349.90;1871903;77;21117;-60
2022/01/04 00:22:51;;;;;;;16.37;6.00;;;;;;;7.91;84.14;100353.78;1871776;77;21089;-60
2022/01/04 00:25:20;;;;;;;23.15;8.10;;;;;;;7.93;84.36;100349.34;1871887;77;21011;-60
2022/01/04 00:27:49;;;;;;;16.75;7.10;;;;;;;7.96;84.31;100347.05;1871777;77;21074;-60
2022/01/04 00:30:18;;;;;;;16.87;7.30;;;;;;;7.96;84.20;100339.19;1871778;77;21055;-60
2022/01/04 00:32:47;;;;;;;18.32;8.08;;;;;;;7.97;84.18;100333.05;1871812;77;21038;-60
2022/01/04 00:35:15;;;;;;;23.75;9.45;;;;;;;7.98;84.18;100335.21;1871786;76;21497;-60
2022/01/04 00:37:44;;;;;;;21.25;8.23;;;;;;;7.97;84.17;100343.97;1869586;76;21071;-60
2022/01/04 00:40:13;;;;;;;19.70;8.25;;;;;;;7.97;84.13;100341.34;1865695;77;21141;-60
2022/01/04 00:42:42;;;;;;;18.20;8.85;;;;;;;7.97;84.07;100337.41;1865659;77;21461;-60
2022/01/04 00:45:11;;;;;;;21.70;8.43;;;;;;;7.96;84.16;100330.02;1865725;75;21078;-60
2022/01/04 00:49:09;;;;;;;22.95;9.68;;;;;;;7.97;84.25;100325.19;1865700;77;21493;-60
2022/01/04 00:50:16;;;;;;;13.45;6.03;;;;;;;7.99;84.19;100321.20;1861900;77;21197;-60
2022/01/04 00:52:44;;;;;;;19.42;8.20;;;;;;;8.01;84.32;100322.84;1833229;78;21039;-60
2022/01/04 00:55:13;;;;;;;21.12;8.90;;;;;;;8.01;84.22;100305.81;1833019;78;21043;-60
2022/01/04 00:57:42;;;;;;;16.32;8.43;;;;;;;8.01;84.18;100305.81;1833131;78;21544;-60
2022/01/04 01:00:13;;;;;;;17.65;8.70;;;;;;;7.99;84.10;100311.56;1833282;78;21043;-60
2022/01/04 01:02:41;;;;;;;18.57;7.55;;;;;;;7.99;83.97;100320.74;1833164;78;21055;-60
2022/01/04 01:05:12;;;;;;;23.07;8.53;;;;;;;7.98;83.91;100326.88;1833096;78;21450;-59
2022/01/04 01:07:41;;;;;;;27.13;11.10;;;;;;;7.99;83.86;100329.92;1833132;78;21035;-59
2022/01/04 01:10:40;;;;;;;23.73;12.18;;;;;;;8.00;83.86;100335.55;1833099;78;21039;-58
2022/01/04 01:12:55;;;;;;;21.02;10.98;;;;;;;7.98;83.77;100333.44;1830807;78;21051;-58
2022/01/04 01:15:25;;;;;;;25.40;12.60;;;;;;;7.97;83.72;100334.36;1833104;78;21509;-59
2022/01/04 01:17:54;;;;;;;26.50;11.45;;;;;;;7.95;83.68;100334.88;1833085;78;21567;-59
2022/01/04 01:20:23;;;;;;;19.75;9.48;;;;;;;7.96;83.79;100335.72;1833001;78;21043;-59
2022/01/04 01:22:51;;;;;;;30.95;10.32;;;;;;;7.96;83.93;100323.45;1833091;78;21478;-59
2022/01/04 01:25:21;;;;;;;15.55;8.28;;;;;;;7.96;83.99;100326.08;1833099;78;21117;-59
2022/01/04 01:27:50;;;;;;;20.95;9.48;;;;;;;7.97;84.11;100317.75;1833078;78;21066;-59
2022/01/04 01:30:18;;;;;;;21.65;9.05;;;;;;;7.96;84.08;100314.28;1833112;78;21091;-59
2022/01/04 01:32:48;;;;;;;23.77;9.43;;;;;;;7.95;84.08;100307.34;1832978;78;21446;-59
2022/01/04 01:35:18;;;;;;;28.85;10.40;;;;;;;7.94;84.22;100299.06;1833093;78;21494;-59
2022/01/04 01:37:46;;;;;;;25.35;8.93;;;;;;;7.96;84.25;100298.55;1832995;77;21442;-59
2022/01/04 01:40:16;;;;;;;22.05;8.50;;;;;;;7.98;84.19;100301.97;1833064;78;21047;-59
2022/01/04 01:42:44;;;;;;;20.68;8.85;;;;;;;7.99;84.16;100301.55;1833086;78;21520;-59
2022/01/04 01:45:16;;;;;;;28.10;9.55;;;;;;;8.01;84.07;100295.78;1833043;78;21568;-59
2022/01/04 01:47:45;;;;;;;22.30;8.93;;;;;;;8.03;84.07;100296.58;1833030;78;21129;-59
2022/01/04 01:50:14;;;;;;;21.30;8.75;;;;;;;8.02;84.01;100287.87;1837009;77;21126;-59
2022/01/04 01:52:46;;;;;;;15.08;6.22;;;;;;;8.05;83.96;100282.95;1865782;77;21402;-58
2022/01/04 01:55:17;;;;;;;18.30;8.88;;;;;;;8.08;83.94;100287.64;1865705;77;21036;-59
2022/01/04 01:57:46;;;;;;;16.20;7.08;;;;;;;8.11;83.90;100285.34;1865888;77;21093;-60
2022/01/04 02:00:17;;;;;;;21.35;8.95;;;;;;;8.11;83.86;100287.97;1865662;77;21149;-60
2022/01/04 02:02:46;;;;;;;24.82;9.13;;;;;;;8.11;83.77;100279.67;1865792;77;21007;-60
2022/01/04 02:05:15;;;;;;;22.67;9.65;;;;;;;8.15;83.73;100282.16;1865773;77;21112;-59
2022/01/04 02:07:45;;;;;;;17.40;7.95;;;;;;;8.15;83.70;100274.30;1865906;77;21067;-59
2022/01/04 02:10:14;;;;;;;18.65;7.22;;;;;;;8.16;83.65;100278.64;1865746;77;21555;-59
2022/01/04 02:12:46;;;;;;;18.87;6.97;;;;;;;8.15;83.70;100282.16;1865754;75;21562;-59
2022/01/04 02:15:21;;;;;;;18.42;7.50;;;;;;;8.18;83.68;100288.62;1864861;77;21035;-58
2022/01/04 02:17:50;;;;;;;18.57;8.43;;;;;;;8.21;83.64;100288.52;1865777;77;21086;-58
2022/01/04 02:20:19;;;;;;;22.20;7.87;;;;;;;8.21;83.62;100291.98;1865752;77;21489;-58
2022/01/04 02:22:49;;;;;;;23.32;7.58;;;;;;;8.24;83.54;100293.63;1865697;77;21559;-59
2022/01/04 02:25:19;;;;;;;24.02;9.03;;;;;;;8.25;83.50;100284.86;1865867;77;21027;-59
2022/01/04 02:27:48;;;;;;;19.92;7.55;;;;;;;8.27;83.45;100284.34;1865774;77;21039;-58
2022/01/04 02:30:20;;;;;;;18.40;8.15;;;;;;;8.27;83.43;100272.55;1865756;77;21055;-58
2022/01/04 02:32:49;;;;;;;19.00;8.28;;;;;;;8.29;83.39;100274.66;1865756;77;21110;-58
2022/01/04 02:35:21;;;;;;;16.02;7.05;;;;;;;8.29;83.36;100272.88;1865816;77;21501;-59
2022/01/04 02:37:51;;;;;;;25.37;8.60;;;;;;;8.31;83.32;100278.06;1865769;77;21028;-58
2022/01/04 02:40:20;;;;;;;18.07;8.00;;;;;;;8.31;83.25;100273.67;1870679;77;21082;-58
2022/01/04 02:42:49;;;;;;;20.45;7.30;;;;;;;8.31;83.23;100270.20;1871965;77;21051;-58
2022/01/04 02:45:18;;;;;;;24.57;8.38;;;;;;;8.31;83.17;100277.60;1871820;77;21116;-59
2022/01/04 02:47:47;;;;;;;21.23;9.10;;;;;;;8.31;83.14;100278.06;1871795;77;21539;-61
2022/01/04 02:50:16;;;;;;;37.28;16.23;;;;;;;8.31;83.16;100280.69;1867282;77;21668;-60
2022/01/04 02:52:45;;;;;;;28.92;12.93;;;;;;;8.32;83.12;100287.66;1839051;78;21044;-60
2022/01/04 02:55:16;;;;;;;24.90;10.70;;;;;;;8.33;83.11;100291.98;1838962;78;21141;-60
2022/01/04 02:57:45;;;;;;;33.45;9.13;;;;;;;8.33;83.12;100294.61;1839020;78;21113;-61
2022/01/04 03:00:16;;;;;;;16.93;6.75;;;;;;;8.32;83.09;100288.98;1838927;78;21568;-61
2022/01/04 03:02:45;;;;;;;17.25;6.50;;;;;;;8.32;83.11;100279.80;1838992;77;21051;-60
2022/01/04 03:05:14;;;;;;;15.55;5.87;;;;;;;8.34;83.06;100288.46;1838977;78;21490;-60
2022/01/04 03:07:43;;;;;;;15.08;5.97;;;;;;;8.35;83.00;100290.16;1839025;78;21023;-61
2022/01/04 03:10:12;;;;;;;12.70;5.78;;;;;;;8.36;82.99;100297.13;1838991;78;21583;-60
2022/01/04 03:12:43;;;;;;;15.90;6.55;;;;;;;8.37;82.96;100298.81;1838984;78;21074;-60
2022/01/04 03:15:12;;;;;;;16.55;7.20;;;;;;;8.37;82.92;100301.44;1838933;78;21176;-60
2022/01/04 03:17:42;;;;;;;18.57;7.28;;;;;;;8.36;82.93;100295.81;1839035;78;21071;-62
2022/01/04 03:20:12;;;;;;;19.25;9.35;;;;;;;8.37;82.96;100300.59;1838977;78;21172;-60
2022/01/04 03:22:41;;;;;;;19.48;6.75;;;;;;;8.37;82.94;100305.37;1838967;78;21058;-61
2022/01/04 03:25:11;;;;;;;14.68;5.80;;;;;;;8.35;82.97;100311.61;1838995;78;21042;-60
2022/01/04 03:27:40;;;;;;;13.08;6.33;;;;;;;8.33;83.01;100309.50;1838982;78;21043;-60
2022/01/04 03:30:10;;;;;;;9.43;3.27;;;;;;;8.33;83.00;100315.59;1838959;78;21071;-60
2022/01/04 03:32:38;;;;;;;8.83;4.45;;;;;;;8.33;82.96;100288.05;1839103;78;21024;-60
2022/01/04 03:35:08;;;;;;;9.18;4.00;;;;;;;8.34;82.87;100319.94;1839011;78;21035;-59
2022/01/04 03:37:37;;;;;;;10.45;4.47;;;;;;;8.33;82.79;100324.77;1839099;78;21109;-60
2022/01/04 03:40:07;;;;;;;5.58;3.12;;;;;;;8.31;82.77;100336.63;1838805;77;21046;-60
2022/01/04 03:42:36;;;;;;;7.97;3.58;;;;;;;8.31;82.75;100342.34;1839034;78;21145;-59
2022/01/04 03:45:06;;;;;;;10.95;3.87;;;;;;;8.29;82.70;100343.70;1838957;78;21537;-60
2022/01/04 03:47:35;;;;;;;5.20;3.12;;;;;;;8.29;82.67;100333.67;1838979;78;21023;-60
2022/01/04 03:50:05;;;;;;;5.65;3.40;;;;;;;8.28;82.56;100330.63;1840956;77;21543;-57
2022/01/04 03:52:35;;;;;;;7.62;3.55;;;;;;;8.23;82.45;100322.95;1871696;77;21085;-59
2022/01/04 03:55:06;;;;;;;9.88;3.83;;;;;;;8.21;82.38;100317.37;1871818;77;21023;-59
2022/01/04 03:57:36;;;;;;;10.35;7.45;;;;;;;8.16;82.20;100313.58;1871781;76;21027;-60
2022/01/04 04:00:07;;;;;;;7.78;3.75;;;;;;;8.12;81.88;100297.10;1871921;76;21485;-60
2022/01/04 04:02:41;;;;;;;8.15;4.05;;;;;;;8.11;81.52;100284.92;1871977;76;21559;-60
2022/01/04 04:05:10;;;;;;;6.10;3.00;;;;;;;8.06;81.23;100264.98;1871710;77;21051;-60
2022/01/04 04:07:39;;;;;;;6.22;2.98;;;;;;;8.04;80.95;100287.79;1871803;77;21039;-60
2022/01/04 04:10:08;;;;;;;8.58;4.90;;;;;;;8.00;81.00;100298.84;1871903;76;21599;-60
2022/01/04 04:12:38;;;;;;;7.75;5.15;;;;;;;7.97;81.11;100295.03;1871922;77;21039;-60
2022/01/04 04:15:08;;;;;;;9.73;5.62;;;;;;;7.97;81.18;100302.02;1871758;77;21485;-59
2022/01/04 04:17:37;;;;;;;11.55;7.33;;;;;;;7.93;81.26;100301.30;1871666;77;21627;-59
2022/01/04 04:20:07;;;;;;;13.05;9.55;;;;;;;7.93;81.34;100306.55;1872000;77;21109;-59
2022/01/04 04:22:36;;;;;;;11.57;6.35;;;;;;;7.91;81.39;100318.83;1871904;77;21117;-59
2022/01/04 04:25:05;;;;;;;9.68;5.47;;;;;;;7.90;81.47;100315.36;1871764;77;21066;-59
2022/01/04 04:27:34;;;;;;;10.68;5.37;;;;;;;7.90;81.51;100311.89;1871895;75;21114;-59
2022/01/04 04:30:04;;;;;;;12.10;4.95;;;;;;;7.89;81.55;100328.52;1871684;77;21027;-60
2022/01/04 04:32:33;;;;;;;8.08;3.77;;;;;;;7.88;81.63;100325.51;1871887;77;21114;-60
2022/01/04 04:35:02;;;;;;;8.45;3.95;;;;;;;7.85;81.71;100334.77;1871927;76;21152;-59
2022/01/04 04:37:31;;;;;;;11.05;4.72;;;;;;;7.84;81.71;100336.55;1872016;77;21097;-59
2022/01/04 04:39:59;;;;;;;9.30;3.35;;;;;;;7.83;81.73;100331.35;1871798;77;21539;-59
2022/01/04 04:42:28;;;;;;;9.05;4.10;;;;;;;7.83;81.77;100335.28;1871659;77;21055;-60
2022/01/04 04:44:57;;;;;;;6.67;4.30;;;;;;;7.81;81.77;100330.55;1871770;77;21521;-59
2022/01/04 04:47:29;;;;;;;9.03;3.92;;;;;;;7.79;81.72;100331.06;1872001;77;21043;-59
2022/01/04 04:49:58;;;;;;;7.28;4.55;;;;;;;7.78;81.66;100328.03;1871194;77;21552;-60
2022/01/04 04:52:27;;;;;;;8.15;4.08;;;;;;;7.76;81.50;100328.53;1838986;78;21489;-60
2022/01/04 04:54:56;;;;;;;8.63;4.80;;;;;;;7.74;81.46;100331.20;1839027;78;21458;-60
2022/01/04 04:57:24;;;;;;;7.42;4.78;;;;;;;7.71;81.40;100335.26;1838917;78;21549;-58
2022/01/04 04:59:53;;;;;;;7.08;3.87;;;;;;;7.66;81.37;100336.70;1839161;78;21059;-58
2022/01/04 05:02:22;;;;;;;6.35;3.45;;;;;;;7.61;81.35;100339.92;1838930;78;21500;-59
2022/01/04 05:04:51;;;;;;;7.85;2.90;;;;;;;7.58;81.34;100349.22;1838916;78;21563;-60
2022/01/04 05:07:19;;;;;;;7.72;2.27;;;;;;;7.52;81.34;100350.28;1838923;78;21149;-60
2022/01/04 05:09:48;;;;;;;6.22;2.92;;;;;;;7.48;81.39;100354.34;1839049;78;21142;-59
2022/01/04 05:12:17;;;;;;;4.22;2.67;;;;;;;7.45;81.41;100355.31;1838935;78;21145;-59
2022/01/04 05:14:46;;;;;;;5.03;2.42;;;;;;;7.41;81.44;100363.30;1838994;78;21047;-59
2022/01/04 05:17:16;;;;;;;3.90;2.02;;;;;;;7.39;81.52;100365.12;1838911;78;21154;-58
2022/01/04 05:19:44;;;;;;;2.27;1.22;;;;;;;7.42;81.59;100366.34;1839023;78;21477;-59
2022/01/04 05:22:13;;;;;;;3.65;1.87;;;;;;;7.46;81.56;100364.87;1838785;78;21518;-59
2022/01/04 05:24:42;;;;;;;3.22;1.75;;;;;;;7.52;81.55;100362.07;1839039;78;21113;-59
2022/01/04 05:27:10;;;;;;;4.05;2.30;;;;;;;7.56;81.52;100365.42;1839019;78;21024;-59
2022/01/04 05:29:40;;;;;;;5.37;1.95;;;;;;;7.58;81.50;100362.33;1838933;78;21019;-59
2022/01/04 05:32:09;;;;;;;4.25;2.27;;;;;;;7.60;81.41;100360.50;1838942;78;21133;-59
2022/01/04 05:34:38;;;;;;;5.90;2.60;;;;;;;7.62;81.35;100361.30;1849640;77;21458;-61
2022/01/04 05:37:07;;;;;;;6.62;2.20;;;;;;;7.64;81.35;100371.74;1869955;77;21016;-59
2022/01/04 05:39:36;;;;;;;3.00;1.67;;;;;;;7.66;81.41;100383.88;1869911;77;21043;-59
2022/01/04 05:42:05;;;;;;;4.83;2.12;;;;;;;7.69;81.37;100378.98;1873162;76;21530;-59
2022/01/04 05:44:36;;;;;;;5.83;1.90;;;;;;;7.71;81.19;100379.81;1876004;76;21091;-59
2022/01/04 05:47:07;;;;;;;5.58;1.82;;;;;;;7.68;81.07;100376.81;1875916;76;21035;-60
2022/01/04 05:49:37;;;;;;;7.35;2.75;;;;;;;7.67;81.05;100382.11;1876006;76;21121;-58
2022/01/04 05:52:06;;;;;;;3.30;2.40;;;;;;;7.68;81.11;100383.37;1877001;76;21129;-59
2022/01/04 05:54:35;;;;;;;7.08;2.33;;;;;;;7.74;81.18;100388.40;1877531;76;21544;-58
2022/01/04 05:57:04;;;;;;;7.35;3.10;;;;;;;7.82;81.15;100400.39;1877543;76;21493;-58
2022/01/04 05:59:33;;;;;;;5.75;2.60;;;;;;;7.92;81.01;100402.66;1843945;76;21101;-59
2022/01/04 06:02:01;;;;;;;10.08;3.77;;;;;;;8.02;80.79;100405.86;1875915;76;21090;-59
2022/01/04 06:04:30;;;;;;;4.08;2.22;;;;;;;8.08;80.67;100408.27;1846318;78;21038;-58
2022/01/04 06:06:59;;;;;;;4.85;2.60;;;;;;;8.17;80.53;100406.22;1854309;76;21489;-59
2022/01/04 06:09:39;;;;;;;9.13;2.75;;;;;;;8.25;80.35;100405.52;1876730;76;20999;-60
2022/01/04 06:12:01;;;;;;;8.45;2.70;;;;;;;8.33;80.19;100396.06;1875214;76;21023;-59
2022/01/04 06:17:15;;;;;;;4.22;2.10;;;;;;;8.49;80.00;100399.43;1877529;76;21063;-60
2022/01/04 06:19:43;;;;;;;4.97;2.85;;;;;;;8.53;79.83;100391.45;1877485;76;21473;-60
2022/01/04 06:22:12;;;;;;;7.45;3.25;;;;;;;8.47;79.64;100403.88;1877833;76;21117;-60
2022/01/04 06:24:41;;;;;;;3.58;2.10;;;;;;;8.46;79.62;100432.79;1877395;76;21101;-61
2022/01/04 06:27:11;;;;;;;6.80;3.45;;;;;;;8.43;79.71;100437.70;1877515;76;21510;-60
2022/01/04 06:29:40;;;;;;;6.10;3.17;;;;;;;8.40;79.77;100431.20;1877512;76;21042;-59
2022/01/04 06:32:10;;;;;;;4.22;2.72;;;;;;;8.39;79.85;100429.52;1877520;76;21042;-59
2022/01/04 06:34:40;;;;;;;5.28;3.00;;;;;;;8.41;79.86;100429.00;1876994;76;21015;-62
2022/01/04 06:37:10;;;;;;;4.45;2.55;;;;;;;8.44;79.79;100439.86;1862801;76;21473;-62
2022/01/04 06:39:39;;;;;;;5.45;2.55;;;;;;;8.44;79.76;100431.52;1880540;76;21112;-62
2022/01/04 06:42:08;;;;;;;2.92;2.00;;;;;;;8.47;79.72;100419.63;1877020;76;21153;-63
2022/01/04 06:44:38;;;;;;;4.70;1.82;;;;;;;8.50;79.65;100408.14;1871533;75;21020;-62
2022/01/04 06:47:07;;;;;;;4.70;2.42;;;;;;;8.52;79.56;100412.03;1869884;77;21059;-62
2022/01/04 06:49:36;;;;;;;5.03;2.30;;;;;;;8.54;79.54;100411.52;1869941;77;21146;-63
2022/01/04 06:52:06;;;;;;;5.00;2.08;;;;;;;8.56;79.33;100405.76;1869899;77;21018;-62
2022/01/04 06:54:35;;;;;;;4.62;2.33;;;;;;;8.57;79.28;100392.58;1858066;77;21095;-61
2022/01/04 06:57:05;;;;;;;5.60;2.12;;;;;;;8.57;79.22;100403.55;1863888;77;21125;-62
2022/01/04 06:59:34;;;;;;;3.55;2.00;;;;;;;8.58;79.17;100406.59;1870014;77;21110;-62
2022/01/04 07:02:03;;;;;;;4.22;2.37;;;;;;;8.57;79.15;100410.11;1869982;76;21540;-62
2022/01/04 07:04:33;;;;;;;4.40;1.80;;;;;;;8.57;79.10;100408.80;1869945;77;21600;-63
2022/01/04 07:07:02;;;;;;;3.15;1.90;;;;;;;8.59;79.05;100409.13;1870040;76;21109;-63
2022/01/04 07:09:31;;;;;;;4.12;2.35;;;;;;;8.64;78.86;100411.14;1869976;77;21481;-63
2022/01/04 07:12:00;;;;;;;5.35;1.82;;;;;;;8.70;78.76;100417.93;1869970;76;21063;-62
2022/01/04 07:14:28;;;;;;;4.85;1.80;;;;;;;8.73;78.66;100425.70;1870189;76;21486;-63
2022/01/04 07:16:57;;;;;;;4.78;1.77;;;;;;;8.74;78.56;100428.71;1870016;77;21611;-63
2022/01/04 07:19:27;;;;;;;5.30;1.77;;;;;;;8.75;78.49;100421.25;1869981;77;21083;-61
2022/01/04 07:21:55;;;;;;;3.83;1.50;;;;;;;8.74;78.25;100421.30;1869974;77;21470;-61
2022/01/04 07:24:25;;;;;;;4.35;2.30;;;;;;;8.70;77.93;100432.37;1870066;77;21092;-61
2022/01/04 07:26:54;;;;;;;2.30;1.37;;;;;;;8.64;77.79;100433.45;1865302;76;21043;-60
2022/01/04 07:29:23;;;;;;;5.17;2.10;;;;;;;8.60;77.49;100437.09;1870715;77;21063;-61
2022/01/04 07:31:52;;;;;;;6.75;1.95;;;;;;;8.56;77.61;100442.50;1865235;77;21067;-61
2022/01/04 07:34:21;;;;;;;3.60;1.98;;;;;;;8.52;77.52;100433.91;1871910;77;21116;-62
2022/01/04 07:36:49;;;;;;;6.42;2.00;;;;;;;8.52;77.43;100447.46;1850873;77;21035;-62
2022/01/04 07:39:18;;;;;;;5.15;2.27;;;;;;;8.53;77.33;100442.62;1839249;78;21058;-64
2022/01/04 07:41:47;;;;;;;3.20;1.85;;;;;;;8.54;76.99;100439.08;1844119;77;21497;-61
2022/01/04 07:44:16;;;;;;;6.15;2.98;;;;;;;8.56;77.19;100447.75;1854790;77;21133;-60
2022/01/04 07:46:44;;;;;;;5.05;1.87;;;;;;;8.57;77.24;100454.72;1865932;77;21055;-61
2022/01/04 07:49:13;;;;;;;1.42;1.15;;;;;;;8.57;76.88;100440.29;1865766;77;21063;-60
2022/01/04 07:51:41;;;;;;;3.52;1.95;;;;;;;8.59;76.40;100448.96;1865802;77;21020;-61
2022/01/04 07:54:10;;;;;;;2.95;1.55;;;;;;;8.63;76.22;100458.00;1866145;77;21051;-61
2022/01/04 07:56:39;;;;;;;3.00;1.72;;;;;;;8.78;76.31;100456.59;1865683;77;21106;-61
2022/01/04 07:59:07;;;;;;;5.47;2.75;;;;;;;8.98;76.08;100462.86;1865699;77;21035;-61
2022/01/04 08:01:36;;;;;;;3.22;1.60;;;;;;;9.02;75.94;100464.48;1865733;77;21039;-61
2022/01/04 08:04:05;;;;;;;5.00;2.25;;;;;;;9.00;75.89;100470.23;1865705;77;21570;-61
2022/01/04 08:06:34;;;;;;;3.33;1.80;;;;;;;8.97;75.84;100476.92;1865748;77;21082;-61
2022/01/04 08:09:03;;;;;;;5.58;1.65;;;;;;;8.95;75.77;100472.19;1865611;77;21060;-61
2022/01/04 08:11:32;;;;;;;5.30;1.70;;;;;;;9.24;75.56;100455.31;1865721;77;21071;-61
2022/01/04 08:14:01;;;;;;;2.15;1.65;;;;;;;10.30;73.71;100457.66;1865842;77;21536;-61
2022/01/04 08:16:30;;;;;;;4.15;2.37;;;;;;;12.40;70.26;100456.73;1865758;77;21109;-61
2022/01/04 08:19:01;;;;;;;2.98;1.65;;;;;;;14.25;66.19;100444.83;1865863;77;21043;-61
2022/01/04 08:21:49;;;;;;;3.72;2.35;;;;;;;14.44;65.60;100446.38;1802388;79;21139;-61
2022/01/04 08:24:17;;;;;;;4.75;2.20;;;;;;;13.36;66.90;100451.73;1801953;80;21055;-61
2022/01/04 08:26:46;;;;;;;3.75;1.72;;;;;;;12.99;67.43;100462.47;1801976;80;21506;-61
2022/01/04 08:29:18;;;;;;;4.70;1.80;;;;;;;14.75;64.68;100464.45;1802040;80;21133;-61
2022/01/04 08:31:47;;;;;;;7.65;1.92;;;;;;;16.46;62.08;100461.48;1801909;80;21174;-63
2022/01/04 08:34:15;;;;;;;3.30;1.72;;;;;;;17.91;59.80;100456.12;1801976;80;21083;-61
2022/01/04 08:36:44;;;;;;;5.58;1.70;;;;;;;18.83;58.15;100441.13;1802007;80;21145;-61
2022/01/04 08:39:14;;;;;;;4.40;1.55;;;;;;;19.55;56.55;100446.52;1802027;80;21213;-61
2022/01/04 08:41:50;;;;;;;3.20;1.60;;;;;;;18.47;57.65;100448.30;1802112;80;21083;-61
2022/01/04 08:44:18;;;;;;;3.60;1.72;;;;;;;17.98;58.22;100437.85;1801895;80;21087;-61
2022/01/04 08:46:46;;;;;;;2.15;1.40;;;;;;;17.98;56.73;100438.69;1801953;80;21127;-61
2022/01/04 08:49:15;;;;;;;2.87;1.55;;;;;;;17.11;58.41;100430.78;1802108;80;21122;-61
2022/01/04 08:51:44;;;;;;;3.67;1.42;;;;;;;16.36;58.86;100440.84;1802019;80;21084;-61
2022/01/04 08:54:14;;;;;;;4.67;1.82;;;;;;;16.17;58.59;100441.22;1802066;80;21031;-61
2022/01/04 08:56:43;;;;;;;4.70;1.77;;;;;;;15.40;57.46;100436.95;1801981;80;21059;-61
2022/01/04 08:59:13;;;;;;;4.60;1.47;;;;;;;15.04;59.04;100463.98;1801957;80;21051;-61
2022/01/04 09:01:42;;;;;;;4.37;1.70;;;;;;;14.36;60.16;100457.92;1802042;80;21032;-61
2022/01/04 09:04:11;;;;;;;2.45;1.37;;;;;;;13.58;60.91;100455.35;1802066;80;21490;-61
2022/01/04 09:06:40;;;;;;;4.97;1.40;;;;;;;13.11;61.90;100459.17;1801991;80;21150;-61
2022/01/04 09:09:09;;;;;;;3.70;1.50;;;;;;;12.83;62.40;100457.61;1801943;80;21102;-61
2022/01/04 09:11:38;;;;;;;3.65;1.80;;;;;;;12.53;62.45;100459.60;1801946;80;21502;-61
2022/01/04 09:14:22;;;;;;;3.00;1.60;;;;;;;12.41;63.14;100472.11;1801956;80;21087;-61
2022/01/04 09:19:29;;;;;;;4.50;1.50;;;;;;;12.04;63.67;100476.59;1801947;79;21549;-61
2022/01/04 09:21:58;;;;;;;4.40;1.60;;;;;;;11.80;64.28;100464.95;1808555;79;21161;-62
2022/01/04 09:24:26;;;;;;;3.87;1.40;;;;;;;11.61;64.32;100466.78;1799699;80;21067;-61
2022/01/04 09:26:55;;;;;;;3.10;1.65;;;;;;;11.44;64.56;100472.86;1799798;80;21059;-60
2022/01/04 09:29:24;;;;;;;3.00;1.98;;;;;;;11.34;64.91;100468.02;1799749;80;21102;-61
2022/01/04 09:31:55;;;;;;;3.87;1.75;;;;;;;11.31;64.58;100460.23;1799704;80;21493;-61
2022/01/04 09:34:24;;;;;;;3.90;1.67;;;;;;;11.34;64.68;100458.79;1799693;79;21157;-61
2022/01/04 09:36:52;;;;;;;5.15;1.40;;;;;;;11.46;63.90;100452.08;1799725;80;21067;-61
2022/01/04 09:39:24;;;;;;;5.17;1.92;;;;;;;11.44;63.72;100463.16;1799843;80;21027;-61
2022/01/04 09:41:59;;;;;;;7.20;1.87;;;;;;;11.36;63.65;100462.64;1799684;80;21071;-61
2022/01/04 09:44:25;;;;;;;4.08;2.10;;;;;;;11.31;64.10;100462.03;1799035;79;21498;-61
2022/01/04 09:46:56;;;;;;;3.05;1.80;;;;;;;11.25;63.89;100451.75;1799662;80;21035;-63
2022/01/04 09:49:26;;;;;;;3.00;1.75;;;;;;;11.20;64.02;100479.17;1799679;80;21047;-61
2022/01/04 09:51:55;;;;;;;5.35;2.00;;;;;;;11.20;64.21;100464.69;1799126;80;21146;-61
2022/01/04 09:54:25;;;;;;;4.40;1.55;;;;;;;11.15;64.28;100475.89;1799694;80;21623;-60
2022/01/04 09:56:55;;;;;;;3.95;1.75;;;;;;;11.15;63.85;100469.30;1799727;80;21102;-61
2022/01/04 09:59:23;;;;;;;3.62;2.00;;;;;;;11.53;63.47;100467.16;1799627;80;21651;-61
2022/01/04 10:02:00;;;;;;;2.20;1.17;;;;;;;12.25;61.87;100472.89;1799889;80;21067;-61
2022/01/04 10:04:24;;;;;;;4.58;2.05;;;;;;;12.46;61.38;100471.41;1798720;80;21028;-61
2022/01/04 10:07:04;;;;;;;3.77;2.42;;;;;;;12.20;61.84;100473.58;1799813;80;21043;-61
2022/01/04 10:09:38;;;;;;;4.50;2.10;;;;;;;11.94;62.35;100477.52;1799662;80;21338;-61
2022/01/04 10:12:10;;;;;;;2.87;1.47;;;;;;;11.63;62.50;100481.59;1799607;80;21059;-61
2022/01/04 10:14:41;;;;;;;5.90;2.50;;;;;;;11.38;63.10;100484.55;1799857;80;21055;-61
2022/01/04 10:17:18;;;;;;;5.65;2.00;;;;;;;11.18;63.31;100495.53;1799675;80;21084;-62
2022/01/04 10:19:44;;;;;;;;;;;;;;;11.06;63.61;100483.37;1801618;80;21188;-61
2022/01/04 10:22:18;;;;;;;7.17;2.30;;;;;;;10.91;63.79;100483.59;1801170;80;20126;-62
2022/01/04 10:24:50;;;;;;;4.70;2.70;;;;;;;10.77;64.25;100494.28;1802051;80;21170;-61
2022/01/04 10:27:25;;;;;;;6.10;2.20;;;;;;;10.68;64.65;100499.95;1802199;79;21145;-62
2022/01/04 10:30:23;;;;;;;6.40;2.45;;;;;;;10.62;64.96;100493.61;1802129;80;21139;-61
2022/01/04 10:32:58;;;;;;;6.05;2.40;;;;;;;10.57;65.27;100502.20;1801513;79;21051;-63
2022/01/04 10:35:35;;;;;;;4.87;2.30;;;;;;;10.52;65.51;100509.42;1786681;79;21026;-63
2022/01/04 10:38:19;;;;;;;8.38;2.15;;;;;;;10.49;65.60;100509.55;1785454;80;21556;-60
2022/01/04 10:40:48;;;;;;;;;;;;;;;10.42;65.44;100511.13;1788223;80;21059;-58
2022/01/04 10:43:20;;;;;;;4.55;2.30;;;;;;;10.43;65.72;100510.66;1787561;80;20121;-58
2022/01/04 10:45:50;;;;;;;5.45;2.47;;;;;;;10.43;65.94;100511.51;1787947;79;21552;-62
2022/01/04 10:48:21;;;;;;;4.70;2.72;;;;;;;10.43;66.00;100510.66;1745870;79;21026;-61
2022/01/04 10:50:53;;;;;;;8.10;3.27;;;;;;;10.42;66.03;100511.13;1787899;78;21020;-61
2022/01/04 10:53:35;;;;;;;4.42;2.02;;;;;;;10.39;66.17;100517.83;1789395;79;21046;-61
2022/01/04 10:56:31;;;;;;;4.25;2.10;;;;;;;10.41;66.25;100508.56;1779956;80;21154;-58
2022/01/04 10:59:03;;;;;;;4.40;2.47;;;;;;;10.41;66.31;100512.50;1779227;81;21062;-59
2022/01/04 11:01:43;;;;;;;3.40;2.37;;;;;;;10.36;66.22;100523.21;1778564;81;21513;-58
2022/01/04 11:04:17;;;;;;;3.10;1.70;;;;;;;10.34;66.37;100517.16;1779043;81;21465;-60
2022/01/04 11:06:47;;;;;;;2.30;1.60;;;;;;;10.30;66.39;100518.18;1778866;80;21074;-60
2022/01/04 11:09:18;;;;;;;3.60;2.20;;;;;;;10.22;66.36;100517.66;1779238;81;21062;-60
2022/01/04 11:11:46;;;;;;;4.75;2.47;;;;;;;10.17;66.53;100527.50;1779348;81;21148;-60
2022/01/04 11:14:15;;;;;;;6.25;2.10;;;;;;;10.15;66.61;100531.51;1779133;81;21070;-60
2022/01/04 11:16:44;;;;;;;3.87;2.05;;;;;;;10.13;66.66;100532.50;1779046;81;21153;-60
2022/01/04 11:19:13;;;;;;;4.03;2.45;;;;;;;10.13;66.70;100535.13;1779205;81;21082;-60
2022/01/04 11:21:43;;;;;;;3.85;1.90;;;;;;;10.13;66.79;100536.45;1779153;81;21496;-60
2022/01/04 11:24:23;;;;;;;3.42;2.02;;;;;;;10.13;66.84;100544.34;1779155;81;21094;-60
2022/01/04 11:26:46;;;;;;;5.58;2.10;;;;;;;10.11;66.78;100547.50;1787369;80;21579;-60
2022/01/04 11:29:20;;;;;;;6.12;1.98;;;;;;;10.07;66.86;100557.72;1780714;80;21215;-60
2022/01/04 11:32:01;;;;;;;3.70;1.90;;;;;;;9.98;66.76;100546.66;1779181;80;21586;-60
2022/01/04 11:35:05;;;;;;;5.60;2.08;;;;;;;9.94;67.03;100560.86;1779728;80;21070;-60
2022/01/04 11:37:35;;;;;;;3.87;2.02;;;;;;;9.94;67.06;100570.06;1779428;80;21485;-60
2022/01/04 11:40:28;;;;;;;5.58;2.40;;;;;;;9.85;67.13;100574.36;1779402;80;21137;-60
2022/01/04 11:42:57;;;;;;;5.83;2.80;;;;;;;9.82;67.17;100584.98;1779273;80;21070;-61
2022/01/04 11:45:40;;;;;;;7.00;2.30;;;;;;;9.77;67.32;100576.41;1780234;80;21518;-60
2022/01/04 11:48:32;;;;;;;4.45;2.27;;;;;;;9.75;67.32;100587.45;1779265;80;21059;-60
2022/01/04 11:51:10;;;;;;;5.80;2.20;;;;;;;9.72;67.40;100580.98;1779147;81;21488;-60